sensor_id;sensor_type;location;lat;lon;timestamp;P1;durP1;ratioP1;P2;durP2;ratioP2
72087;SDS011;59961;50.232;8.616;2023-12-28T00:00:05;8.30;;;4.30;;
72087;SDS011;59961;50.232;8.616;2023-12-28T00:02:31;13.07;;;4.93;;
72087;SDS011;59961;50.232;8.616;2023-12-28T00:04:56;10.97;;;5.30;;
72087;SDS011;59961;50.232;8.616;2023-12-28T00:07:21;12.10;;;5.15;;
72087;SDS011;59961;50.232;8.616;2023-12-28T00:09:46;12.20;;;5.43;;
72087;SDS011;59961;50.232;8.616;2023-12-28T00:12:11;11.52;;;5.95;;
72087;SDS011;59961;50.232;8.616;2023-12-28T00:14:37;11.53;;;5.50;;
72087;SDS011;59961;50.232;8.616;2023-12-28T00:17:02;10.07;;;5.50;;
72087;SDS011;59961;50.232;8.616;2023-12-28T00:19:28;19.37;;;5.87;;
72087;SDS011;59961;50.232;8.616;2023-12-28T00:21:53;11.90;;;5.50;;
72087;SDS011;59961;50.232;8.616;2023-12-28T00:24:19;10.15;;;5.53;;
72087;SDS011;59961;50.232;8.616;2023-12-28T00:26:45;11.27;;;5.07;;
72087;SDS011;59961;50.232;8.616;2023-12-28T00:29:10;11.02;;;5.78;;
72087;SDS011;59961;50.232;8.616;2023-12-28T00:31:35;10.00;;;5.13;;
72087;SDS011;59961;50.232;8.616;2023-12-28T00:34:00;9.30;;;4.60;;
72087;SDS011;59961;50.232;8.616;2023-12-28T00:36:25;11.85;;;5.22;;
72087;SDS011;59961;50.232;8.616;2023-12-28T00:38:51;12.10;;;4.97;;
72087;SDS011;59961;50.232;8.616;2023-12-28T00:41:17;11.23;;;5.03;;
72087;SDS011;59961;50.232;8.616;2023-12-28T00:43:42;10.02;;;4.20;;
72087;SDS011;59961;50.232;8.616;2023-12-28T00:46:07;8.88;;;4.30;;
72087;SDS011;59961;50.232;8.616;2023-12-28T00:48:32;9.30;;;4.97;;
72087;SDS011;59961;50.232;8.616;2023-12-28T00:50:57;8.37;;;4.37;;
72087;SDS011;59961;50.232;8.616;2023-12-28T00:53:24;8.50;;;4.15;;
72087;SDS011;59961;50.232;8.616;2023-12-28T00:55:49;11.00;;;4.35;;
72087;SDS011;59961;50.232;8.616;2023-12-28T00:58:14;8.97;;;4.30;;
72087;SDS011;59961;50.232;8.616;2023-12-28T01:00:39;9.43;;;4.53;;
72087;SDS011;59961;50.232;8.616;2023-12-28T01:03:05;8.55;;;3.65;;
72087;SDS011;59961;50.232;8.616;2023-12-28T01:05:30;7.83;;;3.40;;
72087;SDS011;59961;50.232;8.616;2023-12-28T01:07:55;8.43;;;3.75;;
72087;SDS011;59961;50.232;8.616;2023-12-28T01:10:23;9.13;;;3.25;;
72087;SDS011;59961;50.232;8.616;2023-12-28T01:12:48;7.30;;;3.33;;
72087;SDS011;59961;50.232;8.616;2023-12-28T01:15:13;6.17;;;3.30;;
72087;SDS011;59961;50.232;8.616;2023-12-28T01:17:42;6.37;;;3.13;;
72087;SDS011;59961;50.232;8.616;2023-12-28T01:20:07;6.15;;;2.80;;
72087;SDS011;59961;50.232;8.616;2023-12-28T01:22:32;6.80;;;3.00;;
72087;SDS011;59961;50.232;8.616;2023-12-28T01:24:58;6.78;;;3.15;;
72087;SDS011;59961;50.232;8.616;2023-12-28T01:27:23;6.72;;;2.35;;
72087;SDS011;59961;50.232;8.616;2023-12-28T01:29:48;8.97;;;3.23;;
72087;SDS011;59961;50.232;8.616;2023-12-28T01:32:13;8.10;;;3.13;;
72087;SDS011;59961;50.232;8.616;2023-12-28T01:34:39;6.33;;;2.73;;
72087;SDS011;59961;50.232;8.616;2023-12-28T01:37:05;6.55;;;2.90;;
72087;SDS011;59961;50.232;8.616;2023-12-28T01:39:32;5.72;;;2.70;;
72087;SDS011;59961;50.232;8.616;2023-12-28T01:41:58;7.37;;;3.00;;
72087;SDS011;59961;50.232;8.616;2023-12-28T01:44:23;7.50;;;2.63;;
72087;SDS011;59961;50.232;8.616;2023-12-28T01:46:48;6.87;;;2.93;;
72087;SDS011;59961;50.232;8.616;2023-12-28T01:49:13;7.80;;;3.20;;
72087;SDS011;59961;50.232;8.616;2023-12-28T01:51:39;9.50;;;2.80;;
72087;SDS011;59961;50.232;8.616;2023-12-28T01:54:04;6.40;;;2.30;;
72087;SDS011;59961;50.232;8.616;2023-12-28T01:56:29;7.67;;;2.80;;
72087;SDS011;59961;50.232;8.616;2023-12-28T01:58:55;6.17;;;2.50;;
72087;SDS011;59961;50.232;8.616;2023-12-28T02:01:21;5.73;;;2.50;;
72087;SDS011;59961;50.232;8.616;2023-12-28T02:03:47;6.30;;;2.35;;
72087;SDS011;59961;50.232;8.616;2023-12-28T02:06:12;6.53;;;3.30;;
72087;SDS011;59961;50.232;8.616;2023-12-28T02:08:38;4.93;;;2.50;;
72087;SDS011;59961;50.232;8.616;2023-12-28T02:11:03;6.72;;;2.88;;
72087;SDS011;59961;50.232;8.616;2023-12-28T02:13:29;6.00;;;2.53;;
72087;SDS011;59961;50.232;8.616;2023-12-28T02:16:00;5.90;;;2.73;;
72087;SDS011;59961;50.232;8.616;2023-12-28T02:18:34;7.70;;;3.00;;
72087;SDS011;59961;50.232;8.616;2023-12-28T02:21:02;7.43;;;3.03;;
72087;SDS011;59961;50.232;8.616;2023-12-28T02:23:28;5.13;;;2.40;;
72087;SDS011;59961;50.232;8.616;2023-12-28T02:25:53;6.27;;;2.43;;
72087;SDS011;59961;50.232;8.616;2023-12-28T02:28:21;9.20;;;3.20;;
72087;SDS011;59961;50.232;8.616;2023-12-28T02:30:46;6.18;;;3.03;;
72087;SDS011;59961;50.232;8.616;2023-12-28T02:36:01;7.10;;;3.13;;
72087;SDS011;59961;50.232;8.616;2023-12-28T02:38:27;8.55;;;3.25;;
72087;SDS011;59961;50.232;8.616;2023-12-28T02:40:53;7.50;;;3.20;;
72087;SDS011;59961;50.232;8.616;2023-12-28T02:43:19;6.60;;;3.20;;
72087;SDS011;59961;50.232;8.616;2023-12-28T02:45:44;7.07;;;2.83;;
72087;SDS011;59961;50.232;8.616;2023-12-28T02:48:09;6.20;;;3.07;;
72087;SDS011;59961;50.232;8.616;2023-12-28T02:50:34;6.87;;;3.10;;
72087;SDS011;59961;50.232;8.616;2023-12-28T02:53:00;5.57;;;2.58;;
72087;SDS011;59961;50.232;8.616;2023-12-28T02:55:25;6.87;;;3.17;;
72087;SDS011;59961;50.232;8.616;2023-12-28T02:57:51;7.07;;;2.78;;
72087;SDS011;59961;50.232;8.616;2023-12-28T03:00:16;9.07;;;3.30;;
72087;SDS011;59961;50.232;8.616;2023-12-28T03:02:41;8.82;;;3.30;;
72087;SDS011;59961;50.232;8.616;2023-12-28T03:05:07;6.40;;;2.87;;
72087;SDS011;59961;50.232;8.616;2023-12-28T03:07:35;6.47;;;3.30;;
72087;SDS011;59961;50.232;8.616;2023-12-28T03:10:01;6.47;;;3.10;;
72087;SDS011;59961;50.232;8.616;2023-12-28T03:12:28;8.68;;;2.88;;
72087;SDS011;59961;50.232;8.616;2023-12-28T03:14:53;7.83;;;2.77;;
72087;SDS011;59961;50.232;8.616;2023-12-28T03:17:19;6.40;;;2.73;;
72087;SDS011;59961;50.232;8.616;2023-12-28T03:19:45;5.47;;;2.70;;
72087;SDS011;59961;50.232;8.616;2023-12-28T03:22:11;7.17;;;3.07;;
72087;SDS011;59961;50.232;8.616;2023-12-28T03:24:36;7.77;;;2.80;;
72087;SDS011;59961;50.232;8.616;2023-12-28T03:27:01;8.00;;;3.27;;
72087;SDS011;59961;50.232;8.616;2023-12-28T03:29:27;10.30;;;3.55;;
72087;SDS011;59961;50.232;8.616;2023-12-28T03:31:52;7.33;;;2.77;;
72087;SDS011;59961;50.232;8.616;2023-12-28T03:34:20;7.82;;;3.20;;
72087;SDS011;59961;50.232;8.616;2023-12-28T03:36:47;5.97;;;3.13;;
72087;SDS011;59961;50.232;8.616;2023-12-28T03:39:12;7.05;;;3.00;;
72087;SDS011;59961;50.232;8.616;2023-12-28T03:41:37;8.93;;;3.50;;
72087;SDS011;59961;50.232;8.616;2023-12-28T03:44:02;6.20;;;3.20;;
72087;SDS011;59961;50.232;8.616;2023-12-28T03:46:27;6.60;;;3.20;;
72087;SDS011;59961;50.232;8.616;2023-12-28T03:48:53;7.05;;;3.00;;
72087;SDS011;59961;50.232;8.616;2023-12-28T03:51:18;7.77;;;3.47;;
72087;SDS011;59961;50.232;8.616;2023-12-28T03:53:43;11.27;;;3.40;;
72087;SDS011;59961;50.232;8.616;2023-12-28T03:56:17;6.57;;;2.97;;
72087;SDS011;59961;50.232;8.616;2023-12-28T03:58:43;8.68;;;3.38;;
72087;SDS011;59961;50.232;8.616;2023-12-28T04:01:09;8.45;;;3.15;;
72087;SDS011;59961;50.232;8.616;2023-12-28T04:03:34;6.97;;;3.42;;
72087;SDS011;59961;50.232;8.616;2023-12-28T04:05:59;5.65;;;2.67;;
72087;SDS011;59961;50.232;8.616;2023-12-28T04:08:24;6.20;;;3.00;;
72087;SDS011;59961;50.232;8.616;2023-12-28T04:10:49;7.50;;;3.37;;
72087;SDS011;59961;50.232;8.616;2023-12-28T04:13:22;6.13;;;2.80;;
72087;SDS011;59961;50.232;8.616;2023-12-28T04:15:48;6.40;;;2.80;;
72087;SDS011;59961;50.232;8.616;2023-12-28T04:18:13;7.13;;;3.30;;
72087;SDS011;59961;50.232;8.616;2023-12-28T04:20:38;6.37;;;2.87;;
72087;SDS011;59961;50.232;8.616;2023-12-28T04:23:03;5.50;;;2.77;;
72087;SDS011;59961;50.232;8.616;2023-12-28T04:25:28;7.60;;;3.10;;
72087;SDS011;59961;50.232;8.616;2023-12-28T04:27:54;6.27;;;2.90;;
72087;SDS011;59961;50.232;8.616;2023-12-28T04:30:19;5.40;;;2.67;;
72087;SDS011;59961;50.232;8.616;2023-12-28T04:32:44;5.93;;;2.77;;
72087;SDS011;59961;50.232;8.616;2023-12-28T04:35:09;6.22;;;2.70;;
72087;SDS011;59961;50.232;8.616;2023-12-28T04:37:34;6.93;;;2.50;;
72087;SDS011;59961;50.232;8.616;2023-12-28T04:40:01;5.10;;;2.35;;
72087;SDS011;59961;50.232;8.616;2023-12-28T04:42:28;4.70;;;2.33;;
72087;SDS011;59961;50.232;8.616;2023-12-28T04:44:53;6.75;;;2.90;;
72087;SDS011;59961;50.232;8.616;2023-12-28T04:47:19;4.97;;;2.60;;
72087;SDS011;59961;50.232;8.616;2023-12-28T04:49:44;6.33;;;2.70;;
72087;SDS011;59961;50.232;8.616;2023-12-28T04:52:09;9.80;;;2.90;;
72087;SDS011;59961;50.232;8.616;2023-12-28T04:54:34;6.27;;;2.80;;
72087;SDS011;59961;50.232;8.616;2023-12-28T04:57:01;5.90;;;3.05;;
72087;SDS011;59961;50.232;8.616;2023-12-28T04:59:26;6.50;;;2.85;;
72087;SDS011;59961;50.232;8.616;2023-12-28T05:01:51;7.22;;;2.85;;
72087;SDS011;59961;50.232;8.616;2023-12-28T05:04:16;7.23;;;2.77;;
72087;SDS011;59961;50.232;8.616;2023-12-28T05:06:41;7.00;;;2.83;;
72087;SDS011;59961;50.232;8.616;2023-12-28T05:09:06;7.22;;;2.95;;
72087;SDS011;59961;50.232;8.616;2023-12-28T05:11:32;6.63;;;2.90;;
72087;SDS011;59961;50.232;8.616;2023-12-28T05:13:57;5.45;;;2.53;;
72087;SDS011;59961;50.232;8.616;2023-12-28T05:16:22;6.88;;;2.83;;
72087;SDS011;59961;50.232;8.616;2023-12-28T05:18:47;7.00;;;3.43;;
72087;SDS011;59961;50.232;8.616;2023-12-28T05:21:12;5.90;;;2.47;;
72087;SDS011;59961;50.232;8.616;2023-12-28T05:23:38;6.73;;;2.97;;
72087;SDS011;59961;50.232;8.616;2023-12-28T05:26:03;6.87;;;3.13;;
72087;SDS011;59961;50.232;8.616;2023-12-28T05:28:28;8.57;;;3.53;;
72087;SDS011;59961;50.232;8.616;2023-12-28T05:30:53;7.70;;;3.38;;
72087;SDS011;59961;50.232;8.616;2023-12-28T05:33:19;6.57;;;3.03;;
72087;SDS011;59961;50.232;8.616;2023-12-28T05:35:44;7.50;;;3.13;;
72087;SDS011;59961;50.232;8.616;2023-12-28T05:38:09;7.55;;;3.08;;
72087;SDS011;59961;50.232;8.616;2023-12-28T05:40:35;5.82;;;3.13;;
72087;SDS011;59961;50.232;8.616;2023-12-28T05:43:00;8.85;;;3.10;;
72087;SDS011;59961;50.232;8.616;2023-12-28T05:45:25;6.20;;;2.95;;
72087;SDS011;59961;50.232;8.616;2023-12-28T05:47:50;6.10;;;3.13;;
72087;SDS011;59961;50.232;8.616;2023-12-28T05:50:15;6.75;;;3.28;;
72087;SDS011;59961;50.232;8.616;2023-12-28T05:52:40;6.23;;;3.00;;
72087;SDS011;59961;50.232;8.616;2023-12-28T05:55:06;7.47;;;3.60;;
72087;SDS011;59961;50.232;8.616;2023-12-28T05:57:31;6.57;;;3.07;;
72087;SDS011;59961;50.232;8.616;2023-12-28T05:59:56;7.78;;;3.03;;
72087;SDS011;59961;50.232;8.616;2023-12-28T06:02:22;6.23;;;2.67;;
72087;SDS011;59961;50.232;8.616;2023-12-28T06:04:47;6.20;;;3.13;;
72087;SDS011;59961;50.232;8.616;2023-12-28T06:07:12;8.60;;;3.50;;
72087;SDS011;59961;50.232;8.616;2023-12-28T06:09:37;7.47;;;3.10;;
72087;SDS011;59961;50.232;8.616;2023-12-28T06:12:04;8.38;;;3.13;;
72087;SDS011;59961;50.232;8.616;2023-12-28T06:14:29;6.20;;;3.17;;
72087;SDS011;59961;50.232;8.616;2023-12-28T06:16:55;7.57;;;3.70;;
72087;SDS011;59961;50.232;8.616;2023-12-28T06:19:20;8.38;;;3.53;;
72087;SDS011;59961;50.232;8.616;2023-12-28T06:21:45;7.63;;;3.73;;
72087;SDS011;59961;50.232;8.616;2023-12-28T06:24:11;7.37;;;2.80;;
72087;SDS011;59961;50.232;8.616;2023-12-28T06:26:42;6.87;;;3.10;;
72087;SDS011;59961;50.232;8.616;2023-12-28T06:29:08;11.35;;;3.25;;
72087;SDS011;59961;50.232;8.616;2023-12-28T06:31:34;7.77;;;2.77;;
72087;SDS011;59961;50.232;8.616;2023-12-28T06:34:01;6.47;;;2.95;;
72087;SDS011;59961;50.232;8.616;2023-12-28T06:36:26;7.35;;;2.97;;
72087;SDS011;59961;50.232;8.616;2023-12-28T06:38:51;7.53;;;3.05;;
72087;SDS011;59961;50.232;8.616;2023-12-28T06:41:17;7.18;;;3.28;;
72087;SDS011;59961;50.232;8.616;2023-12-28T06:43:42;7.03;;;2.63;;
72087;SDS011;59961;50.232;8.616;2023-12-28T06:46:07;6.45;;;3.20;;
72087;SDS011;59961;50.232;8.616;2023-12-28T06:48:32;7.27;;;3.33;;
72087;SDS011;59961;50.232;8.616;2023-12-28T06:50:58;7.30;;;3.10;;
72087;SDS011;59961;50.232;8.616;2023-12-28T06:53:23;6.78;;;2.80;;
72087;SDS011;59961;50.232;8.616;2023-12-28T06:55:48;9.37;;;3.50;;
72087;SDS011;59961;50.232;8.616;2023-12-28T06:58:13;6.22;;;3.42;;
72087;SDS011;59961;50.232;8.616;2023-12-28T07:00:38;6.87;;;3.30;;
72087;SDS011;59961;50.232;8.616;2023-12-28T07:03:03;6.93;;;3.17;;
72087;SDS011;59961;50.232;8.616;2023-12-28T07:05:28;7.50;;;3.30;;
72087;SDS011;59961;50.232;8.616;2023-12-28T07:07:54;6.57;;;3.23;;
72087;SDS011;59961;50.232;8.616;2023-12-28T07:10:19;6.55;;;3.55;;
72087;SDS011;59961;50.232;8.616;2023-12-28T07:12:45;5.72;;;2.90;;
72087;SDS011;59961;50.232;8.616;2023-12-28T07:15:10;6.95;;;3.40;;
72087;SDS011;59961;50.232;8.616;2023-12-28T07:17:39;6.72;;;3.63;;
72087;SDS011;59961;50.232;8.616;2023-12-28T07:20:05;6.00;;;3.20;;
72087;SDS011;59961;50.232;8.616;2023-12-28T07:22:30;6.57;;;3.10;;
72087;SDS011;59961;50.232;8.616;2023-12-28T07:24:55;8.10;;;3.30;;
72087;SDS011;59961;50.232;8.616;2023-12-28T07:27:20;6.32;;;2.88;;
72087;SDS011;59961;50.232;8.616;2023-12-28T07:29:46;5.30;;;3.10;;
72087;SDS011;59961;50.232;8.616;2023-12-28T07:32:11;6.87;;;3.13;;
72087;SDS011;59961;50.232;8.616;2023-12-28T07:34:36;7.23;;;3.10;;
72087;SDS011;59961;50.232;8.616;2023-12-28T07:37:01;6.83;;;2.60;;
72087;SDS011;59961;50.232;8.616;2023-12-28T07:39:27;6.30;;;2.58;;
72087;SDS011;59961;50.232;8.616;2023-12-28T07:41:53;6.80;;;2.80;;
72087;SDS011;59961;50.232;8.616;2023-12-28T07:44:18;5.67;;;2.40;;
72087;SDS011;59961;50.232;8.616;2023-12-28T07:46:43;5.45;;;2.70;;
72087;SDS011;59961;50.232;8.616;2023-12-28T07:49:08;6.00;;;2.40;;
72087;SDS011;59961;50.232;8.616;2023-12-28T07:51:34;6.63;;;2.33;;
72087;SDS011;59961;50.232;8.616;2023-12-28T07:53:59;4.90;;;2.35;;
72087;SDS011;59961;50.232;8.616;2023-12-28T07:56:24;5.00;;;2.50;;
72087;SDS011;59961;50.232;8.616;2023-12-28T07:58:49;4.33;;;2.17;;
72087;SDS011;59961;50.232;8.616;2023-12-28T08:01:15;4.38;;;2.30;;
72087;SDS011;59961;50.232;8.616;2023-12-28T08:03:40;5.97;;;2.60;;
72087;SDS011;59961;50.232;8.616;2023-12-28T08:06:05;6.30;;;2.70;;
72087;SDS011;59961;50.232;8.616;2023-12-28T08:08:31;5.00;;;2.40;;
72087;SDS011;59961;50.232;8.616;2023-12-28T08:10:56;3.72;;;1.85;;
72087;SDS011;59961;50.232;8.616;2023-12-28T08:13:21;4.15;;;2.20;;
72087;SDS011;59961;50.232;8.616;2023-12-28T08:15:47;5.97;;;2.37;;
72087;SDS011;59961;50.232;8.616;2023-12-28T08:18:12;4.07;;;2.10;;
72087;SDS011;59961;50.232;8.616;2023-12-28T08:20:37;8.20;;;2.40;;
72087;SDS011;59961;50.232;8.616;2023-12-28T08:23:02;4.33;;;1.93;;
72087;SDS011;59961;50.232;8.616;2023-12-28T08:25:28;4.50;;;2.13;;
72087;SDS011;59961;50.232;8.616;2023-12-28T08:27:53;5.27;;;2.20;;
72087;SDS011;59961;50.232;8.616;2023-12-28T08:30:18;4.03;;;2.10;;
72087;SDS011;59961;50.232;8.616;2023-12-28T08:32:44;4.23;;;2.13;;
72087;SDS011;59961;50.232;8.616;2023-12-28T08:35:09;4.45;;;2.00;;
72087;SDS011;59961;50.232;8.616;2023-12-28T08:37:34;8.40;;;2.73;;
72087;SDS011;59961;50.232;8.616;2023-12-28T08:40:00;6.75;;;2.90;;
72087;SDS011;59961;50.232;8.616;2023-12-28T08:42:25;7.40;;;3.63;;
72087;SDS011;59961;50.232;8.616;2023-12-28T08:44:50;5.78;;;2.80;;
72087;SDS011;59961;50.232;8.616;2023-12-28T08:47:15;4.82;;;2.35;;
72087;SDS011;59961;50.232;8.616;2023-12-28T08:49:40;5.47;;;2.70;;
72087;SDS011;59961;50.232;8.616;2023-12-28T08:52:06;5.47;;;2.33;;
72087;SDS011;59961;50.232;8.616;2023-12-28T08:54:31;8.20;;;4.80;;
72087;SDS011;59961;50.232;8.616;2023-12-28T08:56:56;7.35;;;3.65;;
72087;SDS011;59961;50.232;8.616;2023-12-28T08:59:21;8.43;;;4.13;;
72087;SDS011;59961;50.232;8.616;2023-12-28T09:01:47;9.50;;;5.20;;
72087;SDS011;59961;50.232;8.616;2023-12-28T09:04:12;10.07;;;4.13;;
72087;SDS011;59961;50.232;8.616;2023-12-28T09:06:39;7.45;;;2.58;;
72087;SDS011;59961;50.232;8.616;2023-12-28T09:09:04;7.47;;;2.70;;
72087;SDS011;59961;50.232;8.616;2023-12-28T09:11:29;6.10;;;2.53;;
72087;SDS011;59961;50.232;8.616;2023-12-28T09:13:54;6.00;;;2.73;;
72087;SDS011;59961;50.232;8.616;2023-12-28T09:16:20;10.25;;;4.50;;
72087;SDS011;59961;50.232;8.616;2023-12-28T09:18:48;7.25;;;3.53;;
72087;SDS011;59961;50.232;8.616;2023-12-28T09:21:14;7.03;;;4.07;;
72087;SDS011;59961;50.232;8.616;2023-12-28T09:23:39;7.50;;;3.57;;
72087;SDS011;59961;50.232;8.616;2023-12-28T09:26:07;6.43;;;2.78;;
72087;SDS011;59961;50.232;8.616;2023-12-28T09:28:33;6.47;;;2.47;;
72087;SDS011;59961;50.232;8.616;2023-12-28T09:30:59;4.78;;;2.42;;
72087;SDS011;59961;50.232;8.616;2023-12-28T09:33:24;6.40;;;3.07;;
72087;SDS011;59961;50.232;8.616;2023-12-28T09:35:49;4.40;;;2.40;;
72087;SDS011;59961;50.232;8.616;2023-12-28T09:38:14;6.23;;;2.90;;
72087;SDS011;59961;50.232;8.616;2023-12-28T09:40:43;6.43;;;2.60;;
72087;SDS011;59961;50.232;8.616;2023-12-28T09:45:52;10.43;;;5.97;;
72087;SDS011;59961;50.232;8.616;2023-12-28T09:48:18;7.95;;;4.55;;
72087;SDS011;59961;50.232;8.616;2023-12-28T09:50:44;7.90;;;3.10;;
72087;SDS011;59961;50.232;8.616;2023-12-28T09:53:09;5.80;;;3.03;;
72087;SDS011;59961;50.232;8.616;2023-12-28T09:55:34;7.17;;;3.03;;
72087;SDS011;59961;50.232;8.616;2023-12-28T09:58:00;6.93;;;2.67;;
72087;SDS011;59961;50.232;8.616;2023-12-28T10:00:25;7.25;;;3.38;;
72087;SDS011;59961;50.232;8.616;2023-12-28T10:02:50;8.33;;;2.70;;
72087;SDS011;59961;50.232;8.616;2023-12-28T10:05:16;6.57;;;3.40;;
72087;SDS011;59961;50.232;8.616;2023-12-28T10:07:41;7.50;;;3.30;;
72087;SDS011;59961;50.232;8.616;2023-12-28T10:10:07;5.10;;;2.70;;
72087;SDS011;59961;50.232;8.616;2023-12-28T10:12:32;7.20;;;2.90;;
72087;SDS011;59961;50.232;8.616;2023-12-28T10:14:57;9.30;;;3.20;;
72087;SDS011;59961;50.232;8.616;2023-12-28T10:17:23;7.00;;;2.40;;
72087;SDS011;59961;50.232;8.616;2023-12-28T10:19:48;7.40;;;2.67;;
72087;SDS011;59961;50.232;8.616;2023-12-28T10:22:13;7.32;;;3.03;;
72087;SDS011;59961;50.232;8.616;2023-12-28T10:24:41;5.73;;;2.40;;
72087;SDS011;59961;50.232;8.616;2023-12-28T10:27:06;7.70;;;2.65;;
72087;SDS011;59961;50.232;8.616;2023-12-28T10:29:31;4.43;;;2.33;;
72087;SDS011;59961;50.232;8.616;2023-12-28T10:31:56;4.70;;;2.55;;
72087;SDS011;59961;50.232;8.616;2023-12-28T10:34:22;4.33;;;2.17;;
72087;SDS011;59961;50.232;8.616;2023-12-28T10:36:49;8.93;;;2.50;;
72087;SDS011;59961;50.232;8.616;2023-12-28T10:39:15;5.85;;;2.42;;
72087;SDS011;59961;50.232;8.616;2023-12-28T10:41:41;5.82;;;2.58;;
72087;SDS011;59961;50.232;8.616;2023-12-28T10:44:08;6.17;;;3.00;;
72087;SDS011;59961;50.232;8.616;2023-12-28T10:46:39;4.68;;;2.60;;
72087;SDS011;59961;50.232;8.616;2023-12-28T10:49:10;6.03;;;2.53;;
72087;SDS011;59961;50.232;8.616;2023-12-28T10:51:35;5.03;;;2.30;;
72087;SDS011;59961;50.232;8.616;2023-12-28T10:54:05;5.80;;;2.73;;
72087;SDS011;59961;50.232;8.616;2023-12-28T10:56:36;6.05;;;2.63;;
72087;SDS011;59961;50.232;8.616;2023-12-28T10:59:14;8.15;;;3.38;;
72087;SDS011;59961;50.232;8.616;2023-12-28T11:01:41;8.60;;;2.72;;
72087;SDS011;59961;50.232;8.616;2023-12-28T11:04:07;6.93;;;2.40;;
72087;SDS011;59961;50.232;8.616;2023-12-28T11:06:34;6.13;;;2.45;;
72087;SDS011;59961;50.232;8.616;2023-12-28T11:08:59;5.47;;;2.50;;
72087;SDS011;59961;50.232;8.616;2023-12-28T11:11:25;5.78;;;2.60;;
72087;SDS011;59961;50.232;8.616;2023-12-28T11:13:51;6.97;;;2.60;;
72087;SDS011;59961;50.232;8.616;2023-12-28T11:16:17;5.82;;;2.50;;
72087;SDS011;59961;50.232;8.616;2023-12-28T11:18:43;4.22;;;2.13;;
72087;SDS011;59961;50.232;8.616;2023-12-28T11:21:09;5.97;;;2.00;;
72087;SDS011;59961;50.232;8.616;2023-12-28T11:23:34;6.60;;;2.43;;
72087;SDS011;59961;50.232;8.616;2023-12-28T11:26:00;4.13;;;2.17;;
72087;SDS011;59961;50.232;8.616;2023-12-28T11:28:25;4.80;;;1.97;;
72087;SDS011;59961;50.232;8.616;2023-12-28T11:30:50;4.78;;;1.85;;
72087;SDS011;59961;50.232;8.616;2023-12-28T11:33:15;4.83;;;2.30;;
72087;SDS011;59961;50.232;8.616;2023-12-28T11:35:42;3.92;;;1.90;;
72087;SDS011;59961;50.232;8.616;2023-12-28T11:38:10;4.45;;;1.73;;
72087;SDS011;59961;50.232;8.616;2023-12-28T11:40:40;5.13;;;1.75;;
72087;SDS011;59961;50.232;8.616;2023-12-28T11:43:05;4.77;;;1.80;;
72087;SDS011;59961;50.232;8.616;2023-12-28T11:45:41;2.47;;;1.25;;
72087;SDS011;59961;50.232;8.616;2023-12-28T11:48:14;5.68;;;1.45;;
72087;SDS011;59961;50.232;8.616;2023-12-28T11:50:47;3.30;;;1.63;;
72087;SDS011;59961;50.232;8.616;2023-12-28T11:53:12;6.15;;;2.15;;
72087;SDS011;59961;50.232;8.616;2023-12-28T11:55:37;4.33;;;1.40;;
72087;SDS011;59961;50.232;8.616;2023-12-28T11:58:03;3.83;;;1.90;;
72087;SDS011;59961;50.232;8.616;2023-12-28T12:00:28;4.33;;;1.60;;
72087;SDS011;59961;50.232;8.616;2023-12-28T12:02:53;5.03;;;1.80;;
72087;SDS011;59961;50.232;8.616;2023-12-28T12:05:20;5.07;;;1.70;;
72087;SDS011;59961;50.232;8.616;2023-12-28T12:07:46;4.50;;;1.60;;
72087;SDS011;59961;50.232;8.616;2023-12-28T12:10:16;3.92;;;1.52;;
72087;SDS011;59961;50.232;8.616;2023-12-28T12:12:41;2.60;;;1.23;;
72087;SDS011;59961;50.232;8.616;2023-12-28T12:15:07;9.83;;;1.83;;
72087;SDS011;59961;50.232;8.616;2023-12-28T12:17:32;2.57;;;1.30;;
72087;SDS011;59961;50.232;8.616;2023-12-28T12:19:58;2.03;;;1.17;;
72087;SDS011;59961;50.232;8.616;2023-12-28T12:22:23;6.37;;;1.50;;
72087;SDS011;59961;50.232;8.616;2023-12-28T12:24:48;5.07;;;1.35;;
72087;SDS011;59961;50.232;8.616;2023-12-28T12:27:14;4.65;;;1.42;;
72087;SDS011;59961;50.232;8.616;2023-12-28T12:29:39;3.37;;;1.30;;
72087;SDS011;59961;50.232;8.616;2023-12-28T12:32:04;3.87;;;1.40;;
72087;SDS011;59961;50.232;8.616;2023-12-28T12:34:31;3.20;;;1.38;;
72087;SDS011;59961;50.232;8.616;2023-12-28T12:36:57;2.47;;;1.10;;
72087;SDS011;59961;50.232;8.616;2023-12-28T12:39:23;2.77;;;0.90;;
72087;SDS011;59961;50.232;8.616;2023-12-28T12:41:49;5.28;;;1.23;;
72087;SDS011;59961;50.232;8.616;2023-12-28T12:44:14;5.13;;;0.93;;
72087;SDS011;59961;50.232;8.616;2023-12-28T12:46:41;2.55;;;1.00;;
72087;SDS011;59961;50.232;8.616;2023-12-28T12:49:08;4.37;;;1.10;;
72087;SDS011;59961;50.232;8.616;2023-12-28T12:51:33;2.97;;;0.90;;
72087;SDS011;59961;50.232;8.616;2023-12-28T12:53:59;4.65;;;1.08;;
72087;SDS011;59961;50.232;8.616;2023-12-28T12:56:27;3.77;;;1.30;;
72087;SDS011;59961;50.232;8.616;2023-12-28T12:58:56;4.25;;;1.25;;
72087;SDS011;59961;50.232;8.616;2023-12-28T13:01:21;2.97;;;1.20;;
72087;SDS011;59961;50.232;8.616;2023-12-28T13:03:47;3.70;;;1.00;;
72087;SDS011;59961;50.232;8.616;2023-12-28T13:06:12;4.13;;;0.90;;
72087;SDS011;59961;50.232;8.616;2023-12-28T13:08:38;5.15;;;1.08;;
72087;SDS011;59961;50.232;8.616;2023-12-28T13:11:03;2.50;;;0.67;;
72087;SDS011;59961;50.232;8.616;2023-12-28T13:13:31;2.95;;;0.85;;
72087;SDS011;59961;50.232;8.616;2023-12-28T13:15:56;4.47;;;0.88;;
72087;SDS011;59961;50.232;8.616;2023-12-28T13:18:22;3.03;;;1.30;;
72087;SDS011;59961;50.232;8.616;2023-12-28T13:20:47;4.33;;;1.77;;
72087;SDS011;59961;50.232;8.616;2023-12-28T13:23:12;4.53;;;1.08;;
72087;SDS011;59961;50.232;8.616;2023-12-28T13:25:37;3.87;;;0.90;;
72087;SDS011;59961;50.232;8.616;2023-12-28T13:28:03;5.20;;;1.17;;
72087;SDS011;59961;50.232;8.616;2023-12-28T13:30:28;4.18;;;1.20;;
72087;SDS011;59961;50.232;8.616;2023-12-28T13:32:54;3.47;;;1.27;;
72087;SDS011;59961;50.232;8.616;2023-12-28T13:35:21;2.97;;;1.35;;
72087;SDS011;59961;50.232;8.616;2023-12-28T13:37:47;4.73;;;1.30;;
72087;SDS011;59961;50.232;8.616;2023-12-28T13:40:12;4.15;;;1.35;;
72087;SDS011;59961;50.232;8.616;2023-12-28T13:42:37;3.67;;;1.47;;
72087;SDS011;59961;50.232;8.616;2023-12-28T13:45:03;6.10;;;1.40;;
72087;SDS011;59961;50.232;8.616;2023-12-28T13:47:28;6.82;;;1.70;;
72087;SDS011;59961;50.232;8.616;2023-12-28T13:49:53;4.78;;;1.90;;
72087;SDS011;59961;50.232;8.616;2023-12-28T13:52:19;6.83;;;2.00;;
72087;SDS011;59961;50.232;8.616;2023-12-28T13:54:45;4.78;;;2.17;;
72087;SDS011;59961;50.232;8.616;2023-12-28T13:57:10;4.93;;;1.67;;
72087;SDS011;59961;50.232;8.616;2023-12-28T13:59:35;6.27;;;1.83;;
72087;SDS011;59961;50.232;8.616;2023-12-28T14:02:01;4.53;;;2.03;;
72087;SDS011;59961;50.232;8.616;2023-12-28T14:04:28;5.75;;;2.03;;
72087;SDS011;59961;50.232;8.616;2023-12-28T14:06:53;5.20;;;2.00;;
72087;SDS011;59961;50.232;8.616;2023-12-28T14:09:18;7.18;;;2.17;;
72087;SDS011;59961;50.232;8.616;2023-12-28T14:11:45;4.43;;;2.08;;
72087;SDS011;59961;50.232;8.616;2023-12-28T14:14:11;7.27;;;2.30;;
72087;SDS011;59961;50.232;8.616;2023-12-28T14:16:36;5.57;;;2.03;;
72087;SDS011;59961;50.232;8.616;2023-12-28T14:19:01;6.45;;;2.28;;
72087;SDS011;59961;50.232;8.616;2023-12-28T14:21:26;5.90;;;2.50;;
72087;SDS011;59961;50.232;8.616;2023-12-28T14:23:52;6.13;;;2.00;;
72087;SDS011;59961;50.232;8.616;2023-12-28T14:26:17;6.13;;;2.57;;
72087;SDS011;59961;50.232;8.616;2023-12-28T14:28:43;4.47;;;2.28;;
72087;SDS011;59961;50.232;8.616;2023-12-28T14:31:09;5.47;;;1.90;;
72087;SDS011;59961;50.232;8.616;2023-12-28T14:33:34;5.88;;;2.10;;
72087;SDS011;59961;50.232;8.616;2023-12-28T14:36:00;2.77;;;1.63;;
72087;SDS011;59961;50.232;8.616;2023-12-28T14:38:26;3.97;;;1.67;;
72087;SDS011;59961;50.232;8.616;2023-12-28T14:40:51;4.03;;;1.85;;
72087;SDS011;59961;50.232;8.616;2023-12-28T14:43:16;4.90;;;1.90;;